sensor_id;sensor_type;location;lat;lon;timestamp;temperature;humidity
65036;DHT22;51603;49.300;8.880;2023-07-29T00:01:16;17.30;99.90
65036;DHT22;51603;49.300;8.880;2023-07-29T00:03:42;17.30;99.90
65036;DHT22;51603;49.300;8.880;2023-07-29T00:06:09;17.30;99.90
65036;DHT22;51603;49.300;8.880;2023-07-29T00:08:34;17.30;99.90
65036;DHT22;51603;49.300;8.880;2023-07-29T00:11:00;17.30;99.90
65036;DHT22;51603;49.300;8.880;2023-07-29T00:13:25;17.30;99.90
65036;DHT22;51603;49.300;8.880;2023-07-29T00:15:54;17.30;99.90
65036;DHT22;51603;49.300;8.880;2023-07-29T00:18:20;17.30;99.90
65036;DHT22;51603;49.300;8.880;2023-07-29T00:20:45;17.30;99.90
65036;DHT22;51603;49.300;8.880;2023-07-29T00:23:11;17.30;99.90
65036;DHT22;51603;49.300;8.880;2023-07-29T00:25:36;17.30;99.90
65036;DHT22;51603;49.300;8.880;2023-07-29T00:28:02;17.30;99.90
65036;DHT22;51603;49.300;8.880;2023-07-29T00:30:27;17.30;99.90
65036;DHT22;51603;49.300;8.880;2023-07-29T00:32:53;17.30;99.90
65036;DHT22;51603;49.300;8.880;2023-07-29T00:35:18;17.30;99.90
65036;DHT22;51603;49.300;8.880;2023-07-29T00:37:44;17.40;99.90
65036;DHT22;51603;49.300;8.880;2023-07-29T00:40:15;17.30;99.90
65036;DHT22;51603;49.300;8.880;2023-07-29T00:42:44;17.30;99.90
65036;DHT22;51603;49.300;8.880;2023-07-29T00:45:10;17.30;99.90
65036;DHT22;51603;49.300;8.880;2023-07-29T00:47:35;17.30;99.90
65036;DHT22;51603;49.300;8.880;2023-07-29T00:50:01;17.30;99.90
65036;DHT22;51603;49.300;8.880;2023-07-29T00:52:27;17.30;99.90
65036;DHT22;51603;49.300;8.880;2023-07-29T00:54:52;17.30;99.90
65036;DHT22;51603;49.300;8.880;2023-07-29T00:57:19;17.40;99.90
65036;DHT22;51603;49.300;8.880;2023-07-29T00:59:46;17.30;99.90
65036;DHT22;51603;49.300;8.880;2023-07-29T01:02:12;17.30;99.90
65036;DHT22;51603;49.300;8.880;2023-07-29T01:04:38;17.30;99.90
65036;DHT22;51603;49.300;8.880;2023-07-29T01:10:19;17.30;99.90
65036;DHT22;51603;49.300;8.880;2023-07-29T01:15:26;17.20;99.90
65036;DHT22;51603;49.300;8.880;2023-07-29T01:18:04;17.20;99.90
65036;DHT22;51603;49.300;8.880;2023-07-29T01:20:33;17.20;99.90
65036;DHT22;51603;49.300;8.880;2023-07-29T01:22:59;17.20;99.90
65036;DHT22;51603;49.300;8.880;2023-07-29T01:25:24;17.20;99.90
65036;DHT22;51603;49.300;8.880;2023-07-29T01:27:51;17.20;99.90
65036;DHT22;51603;49.300;8.880;2023-07-29T01:30:17;17.30;99.90
65036;DHT22;51603;49.300;8.880;2023-07-29T01:32:51;17.20;99.90
65036;DHT22;51603;49.300;8.880;2023-07-29T01:38:00;17.20;99.90
65036;DHT22;51603;49.300;8.880;2023-07-29T01:40:28;17.20;99.90
65036;DHT22;51603;49.300;8.880;2023-07-29T01:42:54;17.20;99.90
65036;DHT22;51603;49.300;8.880;2023-07-29T01:45:23;17.20;99.90
65036;DHT22;51603;49.300;8.880;2023-07-29T01:47:49;17.30;99.90
65036;DHT22;51603;49.300;8.880;2023-07-29T01:50:15;17.30;99.90
65036;DHT22;51603;49.300;8.880;2023-07-29T01:52:41;17.20;99.90
65036;DHT22;51603;49.300;8.880;2023-07-29T01:55:06;17.20;99.90
65036;DHT22;51603;49.300;8.880;2023-07-29T01:57:32;17.30;99.90
65036;DHT22;51603;49.300;8.880;2023-07-29T01:59:57;17.30;99.90
65036;DHT22;51603;49.300;8.880;2023-07-29T02:02:23;17.20;99.90
65036;DHT22;51603;49.300;8.880;2023-07-29T02:04:48;17.30;99.90
65036;DHT22;51603;49.300;8.880;2023-07-29T02:07:17;17.20;99.90
65036;DHT22;51603;49.300;8.880;2023-07-29T02:09:44;17.20;99.90
65036;DHT22;51603;49.300;8.880;2023-07-29T02:12:09;17.20;99.90
65036;DHT22;51603;49.300;8.880;2023-07-29T02:14:35;17.20;99.90
65036;DHT22;51603;49.300;8.880;2023-07-29T02:17:00;17.20;99.90
65036;DHT22;51603;49.300;8.880;2023-07-29T02:19:26;17.20;99.90
65036;DHT22;51603;49.300;8.880;2023-07-29T02:21:51;17.20;99.90
65036;DHT22;51603;49.300;8.880;2023-07-29T02:24:17;17.20;99.90
65036;DHT22;51603;49.300;8.880;2023-07-29T02:26:42;17.20;99.90
65036;DHT22;51603;49.300;8.880;2023-07-29T02:29:08;17.20;99.90
65036;DHT22;51603;49.300;8.880;2023-07-29T02:31:34;17.20;99.90
65036;DHT22;51603;49.300;8.880;2023-07-29T02:34:00;17.20;99.90
65036;DHT22;51603;49.300;8.880;2023-07-29T02:36:26;17.20;99.90
65036;DHT22;51603;49.300;8.880;2023-07-29T02:38:51;17.30;99.90
65036;DHT22;51603;49.300;8.880;2023-07-29T02:41:17;17.20;99.90
65036;DHT22;51603;49.300;8.880;2023-07-29T02:43:43;17.20;99.90
65036;DHT22;51603;49.300;8.880;2023-07-29T02:46:09;17.20;99.90
65036;DHT22;51603;49.300;8.880;2023-07-29T02:48:34;17.20;99.90
65036;DHT22;51603;49.300;8.880;2023-07-29T02:51:00;17.20;99.90
65036;DHT22;51603;49.300;8.880;2023-07-29T02:53:26;17.20;99.90
65036;DHT22;51603;49.300;8.880;2023-07-29T02:55:51;17.20;99.90
65036;DHT22;51603;49.300;8.880;2023-07-29T02:58:17;17.20;99.90
65036;DHT22;51603;49.300;8.880;2023-07-29T03:00:42;17.20;99.90
65036;DHT22;51603;49.300;8.880;2023-07-29T03:03:09;17.20;99.90
65036;DHT22;51603;49.300;8.880;2023-07-29T03:05:35;17.20;99.90
65036;DHT22;51603;49.300;8.880;2023-07-29T03:08:00;17.20;99.90
65036;DHT22;51603;49.300;8.880;2023-07-29T03:10:26;17.20;99.90
65036;DHT22;51603;49.300;8.880;2023-07-29T03:12:54;17.20;99.90
65036;DHT22;51603;49.300;8.880;2023-07-29T03:15:23;17.20;99.90
65036;DHT22;51603;49.300;8.880;2023-07-29T03:17:50;17.20;99.90
65036;DHT22;51603;49.300;8.880;2023-07-29T03:20:16;17.20;99.90
65036;DHT22;51603;49.300;8.880;2023-07-29T03:22:43;17.20;99.90
65036;DHT22;51603;49.300;8.880;2023-07-29T03:25:09;17.20;99.90
65036;DHT22;51603;49.300;8.880;2023-07-29T03:27:34;17.20;99.90
65036;DHT22;51603;49.300;8.880;2023-07-29T03:30:02;17.20;99.90
65036;DHT22;51603;49.300;8.880;2023-07-29T03:32:28;17.20;99.90
65036;DHT22;51603;49.300;8.880;2023-07-29T03:34:53;17.20;99.90
65036;DHT22;51603;49.300;8.880;2023-07-29T03:37:20;17.20;99.90
65036;DHT22;51603;49.300;8.880;2023-07-29T03:39:46;17.20;99.90
65036;DHT22;51603;49.300;8.880;2023-07-29T03:42:12;17.20;99.90
65036;DHT22;51603;49.300;8.880;2023-07-29T03:44:38;17.10;99.90
65036;DHT22;51603;49.300;8.880;2023-07-29T03:47:05;17.10;99.90
65036;DHT22;51603;49.300;8.880;2023-07-29T03:49:31;17.10;99.90
65036;DHT22;51603;49.300;8.880;2023-07-29T03:51:56;17.10;99.90
65036;DHT22;51603;49.300;8.880;2023-07-29T03:54:22;17.10;99.90
65036;DHT22;51603;49.300;8.880;2023-07-29T03:56:47;17.10;99.90
65036;DHT22;51603;49.300;8.880;2023-07-29T03:59:13;17.10;99.90
65036;DHT22;51603;49.300;8.880;2023-07-29T04:01:39;17.20;99.90
65036;DHT22;51603;49.300;8.880;2023-07-29T04:04:04;17.20;99.90
65036;DHT22;51603;49.300;8.880;2023-07-29T04:06:30;17.20;99.90
65036;DHT22;51603;49.300;8.880;2023-07-29T04:08:56;17.10;99.90
65036;DHT22;51603;49.300;8.880;2023-07-29T04:11:22;17.10;99.90
65036;DHT22;51603;49.300;8.880;2023-07-29T04:13:48;17.20;99.90
65036;DHT22;51603;49.300;8.880;2023-07-29T04:16:13;17.20;99.90
65036;DHT22;51603;49.300;8.880;2023-07-29T04:18:39;17.20;99.90
65036;DHT22;51603;49.300;8.880;2023-07-29T04:21:04;17.20;99.90
65036;DHT22;51603;49.300;8.880;2023-07-29T04:23:30;17.20;99.90
65036;DHT22;51603;49.300;8.880;2023-07-29T04:25:55;17.20;99.90
65036;DHT22;51603;49.300;8.880;2023-07-29T04:28:21;17.20;99.90
65036;DHT22;51603;49.300;8.880;2023-07-29T04:30:46;17.20;99.90
65036;DHT22;51603;49.300;8.880;2023-07-29T04:33:12;17.20;99.90
65036;DHT22;51603;49.300;8.880;2023-07-29T04:35:38;17.30;99.90
65036;DHT22;51603;49.300;8.880;2023-07-29T04:38:03;17.30;99.90
65036;DHT22;51603;49.300;8.880;2023-07-29T04:40:29;17.30;99.90
65036;DHT22;51603;49.300;8.880;2023-07-29T04:42:54;17.20;99.90
65036;DHT22;51603;49.300;8.880;2023-07-29T04:45:20;17.30;99.90
65036;DHT22;51603;49.300;8.880;2023-07-29T04:47:45;17.20;99.90
65036;DHT22;51603;49.300;8.880;2023-07-29T04:50:11;17.20;99.90
65036;DHT22;51603;49.300;8.880;2023-07-29T04:52:37;17.30;99.90
65036;DHT22;51603;49.300;8.880;2023-07-29T04:55:02;17.30;99.90
65036;DHT22;51603;49.300;8.880;2023-07-29T04:57:28;17.20;99.90
65036;DHT22;51603;49.300;8.880;2023-07-29T04:59:54;17.20;99.90
65036;DHT22;51603;49.300;8.880;2023-07-29T05:02:20;17.20;99.90
65036;DHT22;51603;49.300;8.880;2023-07-29T05:04:46;17.20;99.90
65036;DHT22;51603;49.300;8.880;2023-07-29T05:07:11;17.30;99.90
65036;DHT22;51603;49.300;8.880;2023-07-29T05:09:37;17.30;99.90
65036;DHT22;51603;49.300;8.880;2023-07-29T05:12:03;17.30;99.90
65036;DHT22;51603;49.300;8.880;2023-07-29T05:14:28;17.30;99.90
65036;DHT22;51603;49.300;8.880;2023-07-29T05:16:54;17.30;99.90
65036;DHT22;51603;49.300;8.880;2023-07-29T05:19:20;17.30;99.90
65036;DHT22;51603;49.300;8.880;2023-07-29T05:21:45;17.30;99.90
65036;DHT22;51603;49.300;8.880;2023-07-29T05:24:11;17.30;99.90
65036;DHT22;51603;49.300;8.880;2023-07-29T05:26:36;17.30;99.90
65036;DHT22;51603;49.300;8.880;2023-07-29T05:29:02;17.40;99.90
65036;DHT22;51603;49.300;8.880;2023-07-29T05:31:29;17.40;99.90
65036;DHT22;51603;49.300;8.880;2023-07-29T05:33:55;17.40;99.90
65036;DHT22;51603;49.300;8.880;2023-07-29T05:36:20;17.40;99.90
65036;DHT22;51603;49.300;8.880;2023-07-29T05:38:46;17.40;99.90
65036;DHT22;51603;49.300;8.880;2023-07-29T05:41:11;17.40;99.90
65036;DHT22;51603;49.300;8.880;2023-07-29T05:43:37;17.40;99.90
65036;DHT22;51603;49.300;8.880;2023-07-29T05:46:02;17.50;99.90
65036;DHT22;51603;49.300;8.880;2023-07-29T05:48:28;17.50;99.90
65036;DHT22;51603;49.300;8.880;2023-07-29T05:50:53;17.50;99.90
65036;DHT22;51603;49.300;8.880;2023-07-29T05:53:19;17.50;99.90
65036;DHT22;51603;49.300;8.880;2023-07-29T05:55:45;17.50;99.90
65036;DHT22;51603;49.300;8.880;2023-07-29T05:58:10;17.60;99.90
65036;DHT22;51603;49.300;8.880;2023-07-29T06:00:36;17.60;99.90
65036;DHT22;51603;49.300;8.880;2023-07-29T06:03:01;17.50;99.90
65036;DHT22;51603;49.300;8.880;2023-07-29T06:05:27;17.50;99.90
65036;DHT22;51603;49.300;8.880;2023-07-29T06:07:53;17.50;99.90
65036;DHT22;51603;49.300;8.880;2023-07-29T06:10:19;17.60;99.90
65036;DHT22;51603;49.300;8.880;2023-07-29T06:12:45;17.60;99.90
65036;DHT22;51603;49.300;8.880;2023-07-29T06:15:11;17.60;99.90
65036;DHT22;51603;49.300;8.880;2023-07-29T06:17:38;17.60;99.90
65036;DHT22;51603;49.300;8.880;2023-07-29T06:20:04;17.60;99.90
65036;DHT22;51603;49.300;8.880;2023-07-29T06:22:29;17.60;99.90
65036;DHT22;51603;49.300;8.880;2023-07-29T06:24:55;17.70;99.90
65036;DHT22;51603;49.300;8.880;2023-07-29T06:27:20;17.70;99.90
65036;DHT22;51603;49.300;8.880;2023-07-29T06:29:46;17.70;99.90
65036;DHT22;51603;49.300;8.880;2023-07-29T06:32:11;17.80;99.90
65036;DHT22;51603;49.300;8.880;2023-07-29T06:34:37;17.90;99.90
65036;DHT22;51603;49.300;8.880;2023-07-29T06:37:03;18.00;99.90
65036;DHT22;51603;49.300;8.880;2023-07-29T06:39:28;18.00;99.90
65036;DHT22;51603;49.300;8.880;2023-07-29T06:41:54;18.10;99.90
65036;DHT22;51603;49.300;8.880;2023-07-29T06:44:19;18.10;99.90
65036;DHT22;51603;49.300;8.880;2023-07-29T06:46:45;18.10;99.90
65036;DHT22;51603;49.300;8.880;2023-07-29T06:49:11;18.10;99.90
65036;DHT22;51603;49.300;8.880;2023-07-29T06:51:36;18.10;99.90
65036;DHT22;51603;49.300;8.880;2023-07-29T06:54:02;18.10;99.90
65036;DHT22;51603;49.300;8.880;2023-07-29T06:56:28;18.10;99.90
65036;DHT22;51603;49.300;8.880;2023-07-29T06:58:54;18.10;99.90
65036;DHT22;51603;49.300;8.880;2023-07-29T07:01:19;18.20;99.90
65036;DHT22;51603;49.300;8.880;2023-07-29T07:03:45;18.30;99.90
65036;DHT22;51603;49.300;8.880;2023-07-29T07:06:10;18.40;99.90
65036;DHT22;51603;49.300;8.880;2023-07-29T07:08:36;18.40;99.90
65036;DHT22;51603;49.300;8.880;2023-07-29T07:11:02;18.50;99.90
65036;DHT22;51603;49.300;8.880;2023-07-29T07:13:27;18.60;99.90
65036;DHT22;51603;49.300;8.880;2023-07-29T07:15:56;18.70;99.90
65036;DHT22;51603;49.300;8.880;2023-07-29T07:18:22;18.70;99.90
65036;DHT22;51603;49.300;8.880;2023-07-29T07:20:51;18.80;99.90
65036;DHT22;51603;49.300;8.880;2023-07-29T07:23:17;18.90;99.90
65036;DHT22;51603;49.300;8.880;2023-07-29T07:25:43;18.90;99.90
65036;DHT22;51603;49.300;8.880;2023-07-29T07:28:10;18.90;99.90
65036;DHT22;51603;49.300;8.880;2023-07-29T07:30:38;18.90;99.90
65036;DHT22;51603;49.300;8.880;2023-07-29T07:33:04;19.00;99.90
65036;DHT22;51603;49.300;8.880;2023-07-29T07:35:30;19.10;99.90
65036;DHT22;51603;49.300;8.880;2023-07-29T07:37:55;19.20;99.90
65036;DHT22;51603;49.300;8.880;2023-07-29T07:40:21;19.30;99.90
65036;DHT22;51603;49.300;8.880;2023-07-29T07:42:46;19.30;99.90
65036;DHT22;51603;49.300;8.880;2023-07-29T07:45:12;19.50;99.90
65036;DHT22;51603;49.300;8.880;2023-07-29T07:47:37;19.60;99.90
65036;DHT22;51603;49.300;8.880;2023-07-29T07:50:03;19.70;99.90
65036;DHT22;51603;49.300;8.880;2023-07-29T07:52:29;19.70;99.90
65036;DHT22;51603;49.300;8.880;2023-07-29T07:54:55;19.80;99.90
65036;DHT22;51603;49.300;8.880;2023-07-29T07:57:21;19.90;99.90
65036;DHT22;51603;49.300;8.880;2023-07-29T07:59:47;20.10;99.90
65036;DHT22;51603;49.300;8.880;2023-07-29T08:02:12;20.20;99.90
65036;DHT22;51603;49.300;8.880;2023-07-29T08:04:38;20.30;99.90
65036;DHT22;51603;49.300;8.880;2023-07-29T08:07:04;20.30;99.90
65036;DHT22;51603;49.300;8.880;2023-07-29T08:09:29;20.30;99.90
65036;DHT22;51603;49.300;8.880;2023-07-29T08:11:55;20.30;99.90
65036;DHT22;51603;49.300;8.880;2023-07-29T08:14:21;20.20;99.90
65036;DHT22;51603;49.300;8.880;2023-07-29T08:16:46;20.10;99.90
65036;DHT22;51603;49.300;8.880;2023-07-29T08:19:12;20.10;99.90
65036;DHT22;51603;49.300;8.880;2023-07-29T08:21:37;20.00;99.90
65036;DHT22;51603;49.300;8.880;2023-07-29T08:24:03;20.00;99.90
65036;DHT22;51603;49.300;8.880;2023-07-29T08:26:29;20.00;99.90
65036;DHT22;51603;49.300;8.880;2023-07-29T08:28:54;20.00;99.90
65036;DHT22;51603;49.300;8.880;2023-07-29T08:31:20;20.10;99.90
65036;DHT22;51603;49.300;8.880;2023-07-29T08:33:45;20.00;99.90
65036;DHT22;51603;49.300;8.880;2023-07-29T08:36:11;20.10;99.90
65036;DHT22;51603;49.300;8.880;2023-07-29T08:38:37;20.10;99.90
65036;DHT22;51603;49.300;8.880;2023-07-29T08:41:19;20.10;99.90
65036;DHT22;51603;49.300;8.880;2023-07-29T08:44:09;20.10;99.90
65036;DHT22;51603;49.300;8.880;2023-07-29T08:46:36;20.30;99.90
65036;DHT22;51603;49.300;8.880;2023-07-29T08:49:02;20.40;99.90
65036;DHT22;51603;49.300;8.880;2023-07-29T08:51:28;20.40;99.90
65036;DHT22;51603;49.300;8.880;2023-07-29T08:53:55;20.50;99.90
65036;DHT22;51603;49.300;8.880;2023-07-29T08:56:20;20.40;99.90
65036;DHT22;51603;49.300;8.880;2023-07-29T08:58:47;20.40;99.90
65036;DHT22;51603;49.300;8.880;2023-07-29T09:01:12;20.40;99.90
65036;DHT22;51603;49.300;8.880;2023-07-29T09:03:39;20.40;99.90
65036;DHT22;51603;49.300;8.880;2023-07-29T09:06:05;20.40;99.90
65036;DHT22;51603;49.300;8.880;2023-07-29T09:08:32;20.50;99.90
65036;DHT22;51603;49.300;8.880;2023-07-29T09:10:58;20.50;99.90
65036;DHT22;51603;49.300;8.880;2023-07-29T09:13:24;20.50;99.90
65036;DHT22;51603;49.300;8.880;2023-07-29T09:15:54;20.50;99.90
65036;DHT22;51603;49.300;8.880;2023-07-29T09:18:21;20.60;99.90
65036;DHT22;51603;49.300;8.880;2023-07-29T09:20:48;20.70;99.90
65036;DHT22;51603;49.300;8.880;2023-07-29T09:23:14;20.90;99.90
65036;DHT22;51603;49.300;8.880;2023-07-29T09:25:40;21.00;99.90
65036;DHT22;51603;49.300;8.880;2023-07-29T09:28:11;21.20;99.90
65036;DHT22;51603;49.300;8.880;2023-07-29T09:30:40;21.30;99.90
65036;DHT22;51603;49.300;8.880;2023-07-29T09:33:06;21.60;99.90
65036;DHT22;51603;49.300;8.880;2023-07-29T09:35:34;21.70;99.90
65036;DHT22;51603;49.300;8.880;2023-07-29T09:38:00;21.80;99.90
65036;DHT22;51603;49.300;8.880;2023-07-29T09:40:25;22.00;99.90
65036;DHT22;51603;49.300;8.880;2023-07-29T09:42:53;22.00;99.90
65036;DHT22;51603;49.300;8.880;2023-07-29T09:45:26;22.10;99.90
65036;DHT22;51603;49.300;8.880;2023-07-29T09:47:53;22.20;99.90
65036;DHT22;51603;49.300;8.880;2023-07-29T09:50:23;22.20;99.90
65036;DHT22;51603;49.300;8.880;2023-07-29T09:52:50;22.30;99.90
65036;DHT22;51603;49.300;8.880;2023-07-29T09:55:23;22.30;99.90
65036;DHT22;51603;49.300;8.880;2023-07-29T09:57:54;22.20;99.90
65036;DHT22;51603;49.300;8.880;2023-07-29T10:00:19;22.20;99.90
65036;DHT22;51603;49.300;8.880;2023-07-29T10:02:45;22.30;99.90
65036;DHT22;51603;49.300;8.880;2023-07-29T10:05:11;22.60;99.90
65036;DHT22;51603;49.300;8.880;2023-07-29T10:07:38;22.70;99.90
65036;DHT22;51603;49.300;8.880;2023-07-29T10:10:05;22.80;99.90
65036;DHT22;51603;49.300;8.880;2023-07-29T10:12:31;22.90;99.90
65036;DHT22;51603;49.300;8.880;2023-07-29T10:15:00;22.80;99.90
65036;DHT22;51603;49.300;8.880;2023-07-29T10:17:26;22.80;99.90
65036;DHT22;51603;49.300;8.880;2023-07-29T10:19:53;22.80;99.90
65036;DHT22;51603;49.300;8.880;2023-07-29T10:22:21;22.80;99.90
65036;DHT22;51603;49.300;8.880;2023-07-29T10:24:51;22.60;99.90
65036;DHT22;51603;49.300;8.880;2023-07-29T10:27:19;22.50;99.90
65036;DHT22;51603;49.300;8.880;2023-07-29T10:29:46;22.40;99.90
65036;DHT22;51603;49.300;8.880;2023-07-29T10:32:11;22.50;99.90
65036;DHT22;51603;49.300;8.880;2023-07-29T10:34:37;22.50;99.90
65036;DHT22;51603;49.300;8.880;2023-07-29T10:37:04;22.50;99.90
65036;DHT22;51603;49.300;8.880;2023-07-29T10:39:40;22.40;99.90
65036;DHT22;51603;49.300;8.880;2023-07-29T10:42:06;22.40;99.90
65036;DHT22;51603;49.300;8.880;2023-07-29T10:47:18;22.30;99.90
65036;DHT22;51603;49.300;8.880;2023-07-29T10:49:45;22.20;99.90
65036;DHT22;51603;49.300;8.880;2023-07-29T10:52:16;22.30;99.90
65036;DHT22;51603;49.300;8.880;2023-07-29T10:54:48;22.30;99.90
65036;DHT22;51603;49.300;8.880;2023-07-29T11:10:12;22.50;99.90
65036;DHT22;51603;49.300;8.880;2023-07-29T11:12:46;23.30;99.90
65036;DHT22;51603;49.300;8.880;2023-07-29T11:15:23;23.20;99.90
65036;DHT22;51603;49.300;8.880;2023-07-29T11:17:51;23.20;99.90
65036;DHT22;51603;49.300;8.880;2023-07-29T11:20:19;23.40;99.90
65036;DHT22;51603;49.300;8.880;2023-07-29T11:22:45;23.60;99.90
65036;DHT22;51603;49.300;8.880;2023-07-29T11:25:13;23.70;99.90
65036;DHT22;51603;49.300;8.880;2023-07-29T11:27:39;23.90;99.90
65036;DHT22;51603;49.300;8.880;2023-07-29T11:30:08;23.80;99.90
65036;DHT22;51603;49.300;8.880;2023-07-29T11:32:34;23.80;99.90
65036;DHT22;51603;49.300;8.880;2023-07-29T11:37:34;23.90;99.90
65036;DHT22;51603;49.300;8.880;2023-07-29T11:40:00;23.80;99.90
65036;DHT22;51603;49.300;8.880;2023-07-29T11:42:26;24.00;99.90
65036;DHT22;51603;49.300;8.880;2023-07-29T11:44:55;24.10;99.90
65036;DHT22;51603;49.300;8.880;2023-07-29T11:47:21;24.30;99.90
65036;DHT22;51603;49.300;8.880;2023-07-29T11:49:47;24.50;99.90
65036;DHT22;51603;49.300;8.880;2023-07-29T11:52:12;24.50;99.90
65036;DHT22;51603;49.300;8.880;2023-07-29T11:54:39;24.50;99.90
65036;DHT22;51603;49.300;8.880;2023-07-29T11:57:08;24.30;99.90
65036;DHT22;51603;49.300;8.880;2023-07-29T11:59:35;24.20;99.90
65036;DHT22;51603;49.300;8.880;2023-07-29T12:02:02;24.00;99.90
65036;DHT22;51603;49.300;8.880;2023-07-29T12:04:30;23.80;99.90
65036;DHT22;51603;49.300;8.880;2023-07-29T12:06:56;23.60;99.90
65036;DHT22;51603;49.300;8.880;2023-07-29T12:09:23;23.60;99.90
65036;DHT22;51603;49.300;8.880;2023-07-29T12:11:48;23.70;99.90
65036;DHT22;51603;49.300;8.880;2023-07-29T12:14:16;23.80;99.90
65036;DHT22;51603;49.300;8.880;2023-07-29T12:16:43;23.80;99.90
65036;DHT22;51603;49.300;8.880;2023-07-29T12:19:12;23.80;99.90
65036;DHT22;51603;49.300;8.880;2023-07-29T12:21:39;23.70;99.90
65036;DHT22;51603;49.300;8.880;2023-07-29T12:24:05;23.80;99.90
65036;DHT22;51603;49.300;8.880;2023-07-29T12:26:31;23.90;99.90
65036;DHT22;51603;49.300;8.880;2023-07-29T12:28:56;23.90;99.90
65036;DHT22;51603;49.300;8.880;2023-07-29T12:31:31;24.10;99.90
65036;DHT22;51603;49.300;8.880;2023-07-29T12:33:57;24.10;99.90
65036;DHT22;51603;49.300;8.880;2023-07-29T12:36:29;24.20;99.90
65036;DHT22;51603;49.300;8.880;2023-07-29T12:39:05;24.40;99.90
65036;DHT22;51603;49.300;8.880;2023-07-29T12:41:30;24.40;99.90
65036;DHT22;51603;49.300;8.880;2023-07-29T12:43:56;24.40;99.90
65036;DHT22;51603;49.300;8.880;2023-07-29T12:46:21;24.60;99.90
65036;DHT22;51603;49.300;8.880;2023-07-29T12:48:47;24.60;99.90
65036;DHT22;51603;49.300;8.880;2023-07-29T12:51:12;24.70;99.90
65036;DHT22;51603;49.300;8.880;2023-07-29T12:53:38;24.70;99.90
65036;DHT22;51603;49.300;8.880;2023-07-29T12:56:05;24.80;99.90
65036;DHT22;51603;49.300;8.880;2023-07-29T12:58:31;24.90;99.90
65036;DHT22;51603;49.300;8.880;2023-07-29T13:00:56;24.80;99.90
65036;DHT22;51603;49.300;8.880;2023-07-29T13:03:22;24.80;99.90
65036;DHT22;51603;49.300;8.880;2023-07-29T13:05:47;24.90;99.90
65036;DHT22;51603;49.300;8.880;2023-07-29T13:08:13;25.10;99.90
65036;DHT22;51603;49.300;8.880;2023-07-29T13:10:38;25.20;99.90
65036;DHT22;51603;49.300;8.880;2023-07-29T13:13:04;25.40;99.90
65036;DHT22;51603;49.300;8.880;2023-07-29T13:15:29;25.50;99.90
65036;DHT22;51603;49.300;8.880;2023-07-29T13:17:55;25.10;99.90
65036;DHT22;51603;49.300;8.880;2023-07-29T13:20:20;24.90;99.90
65036;DHT22;51603;49.300;8.880;2023-07-29T13:22:46;25.00;99.90
65036;DHT22;51603;49.300;8.880;2023-07-29T13:25:11;25.00;99.90
65036;DHT22;51603;49.300;8.880;2023-07-29T13:27:37;24.90;99.90
65036;DHT22;51603;49.300;8.880;2023-07-29T13:30:02;24.80;99.90
65036;DHT22;51603;49.300;8.880;2023-07-29T13:32:28;24.70;99.90
65036;DHT22;51603;49.300;8.880;2023-07-29T13:34:53;24.60;99.90
65036;DHT22;51603;49.300;8.880;2023-07-29T13:37:19;24.50;99.90
65036;DHT22;51603;49.300;8.880;2023-07-29T13:39:45;24.40;99.90
65036;DHT22;51603;49.300;8.880;2023-07-29T13:42:10;24.30;99.90
65036;DHT22;51603;49.300;8.880;2023-07-29T13:44:36;24.30;99.90
65036;DHT22;51603;49.300;8.880;2023-07-29T13:47:01;24.30;99.90
65036;DHT22;51603;49.300;8.880;2023-07-29T13:49:26;24.50;99.90
65036;DHT22;51603;49.300;8.880;2023-07-29T13:51:52;24.50;99.90
65036;DHT22;51603;49.300;8.880;2023-07-29T13:54:17;24.90;99.90
65036;DHT22;51603;49.300;8.880;2023-07-29T13:56:43;25.30;99.90
65036;DHT22;51603;49.300;8.880;2023-07-29T13:59:09;25.50;99.90
65036;DHT22;51603;49.300;8.880;2023-07-29T14:01:34;25.70;99.90
65036;DHT22;51603;49.300;8.880;2023-07-29T14:04:00;25.60;99.90
65036;DHT22;51603;49.300;8.880;2023-07-29T14:06:25;25.40;99.90
65036;DHT22;51603;49.300;8.880;2023-07-29T14:08:51;25.10;99.90
65036;DHT22;51603;49.300;8.880;2023-07-29T14:11:16;25.10;99.90
65036;DHT22;51603;49.300;8.880;2023-07-29T14:13:42;25.30;99.90
65036;DHT22;51603;49.300;8.880;2023-07-29T14:16:07;25.60;99.90
65036;DHT22;51603;49.300;8.880;2023-07-29T14:18:33;25.90;99.90
65036;DHT22;51603;49.300;8.880;2023-07-29T14:20:58;26.10;99.90
65036;DHT22;51603;49.300;8.880;2023-07-29T14:23:24;26.40;99.90
65036;DHT22;51603;49.300;8.880;2023-07-29T14:25:49;26.60;99.90
65036;DHT22;51603;49.300;8.880;2023-07-29T14:28:15;26.80;99.90
65036;DHT22;51603;49.300;8.880;2023-07-29T14:30:40;26.60;99.90
65036;DHT22;51603;49.300;8.880;2023-07-29T14:33:06;26.30;99.90
65036;DHT22;51603;49.300;8.880;2023-07-29T14:35:32;25.90;99.90
65036;DHT22;51603;49.300;8.880;2023-07-29T14:37:58;25.60;99.90
65036;DHT22;51603;49.300;8.880;2023-07-29T14:40:23;25.40;99.90
65036;DHT22;51603;49.300;8.880;2023-07-29T14:42:49;25.20;99.90
65036;DHT22;51603;49.300;8.880;2023-07-29T14:45:14;25.00;99.90
65036;DHT22;51603;49.300;8.880;2023-07-29T14:47:40;24.90;99.90
65036;DHT22;51603;49.300;8.880;2023-07-29T14:50:05;24.80;99.90
65036;DHT22;51603;49.300;8.880;2023-07-29T14:52:31;24.90;99.90
65036;DHT22;51603;49.300;8.880;2023-07-29T14:54:56;25.00;99.90
65036;DHT22;51603;49.300;8.880;2023-07-29T14:57:22;25.10;99.90
65036;DHT22;51603;49.300;8.880;2023-07-29T14:59:47;25.10;99.90
65036;DHT22;51603;49.300;8.880;2023-07-29T15:02:13;25.30;99.90
65036;DHT22;51603;49.300;8.880;2023-07-29T15:04:38;25.60;99.90
65036;DHT22;51603;49.300;8.880;2023-07-29T15:07:04;26.00;99.90
65036;DHT22;51603;49.300;8.880;2023-07-29T15:09:30;26.40;99.90
65036;DHT22;51603;49.300;8.880;2023-07-29T15:11:55;26.30;99.90
65036;DHT22;51603;49.300;8.880;2023-07-29T15:14:21;26.10;99.90
65036;DHT22;51603;49.300;8.880;2023-07-29T15:16:46;25.80;99.90
65036;DHT22;51603;49.300;8.880;2023-07-29T15:19:12;25.50;99.90
65036;DHT22;51603;49.300;8.880;2023-07-29T15:21:39;25.40;99.90
65036;DHT22;51603;49.300;8.880;2023-07-29T15:24:05;25.40;99.90
65036;DHT22;51603;49.300;8.880;2023-07-29T15:26:30;25.70;99.90
65036;DHT22;51603;49.300;8.880;2023-07-29T15:28:57;26.20;99.90
65036;DHT22;51603;49.300;8.880;2023-07-29T15:31:23;26.40;99.90
65036;DHT22;51603;49.300;8.880;2023-07-29T15:33:49;26.60;99.90
65036;DHT22;51603;49.300;8.880;2023-07-29T15:36:14;26.50;99.90
65036;DHT22;51603;49.300;8.880;2023-07-29T15:38:40;26.40;99.90
65036;DHT22;51603;49.300;8.880;2023-07-29T15:41:05;26.20;99.90
65036;DHT22;51603;49.300;8.880;2023-07-29T15:43:31;26.00;99.90
65036;DHT22;51603;49.300;8.880;2023-07-29T15:45:56;25.80;99.90
65036;DHT22;51603;49.300;8.880;2023-07-29T15:48:22;25.80;99.90
65036;DHT22;51603;49.300;8.880;2023-07-29T15:50:48;25.70;99.90